ΕΜΥ, Εθνική Μετεωρολογική Υπηρεσία - Δελτία Καιρού, Προγνώσεις

ΑΕΡΟΝΑΥΤΙΛΙΑ

GREEK AIRPORTS CODES

LGKA 251530Z AUTO 32005KT 260V330 //// // ////// 23/05 Q1015 RE//=

EUROPEAN AIRPORTS CODES

LKPR 251530Z 35005KT 300V030 9999 FEW036 19/10 Q1014 NOSIG=